METAR Data
IDs: Format: Raw Decoded Include TAF

Data at: 0126 UTC 20 Jul 2019

METAR for:KOOA (Oskaloosa Muni, IA, US)
Text:KOOA 200035Z AUTO 20009KT 32/25 A2975 RMK AO2 T03190248 PWINO
Temperature: 31.9°C ( 89°F)
Dewpoint: 24.8°C ( 77°F) [RH = 66%]
Pressure (altimeter):29.75 inches Hg (1007.5 mb)
Winds:from the SSW (200 degrees) at 10 MPH (9 knots; 4.6 m/s)
QC Flag:automated observation with no human augmentation